sensor_id;sensor_type;location;lat;lon;timestamp;temperature;humidity
16627;DHT22;8427;52.204;7.202;2023-05-07T00:01:00;14.30;89.80
16627;DHT22;8427;52.204;7.202;2023-05-07T00:03:29;14.40;89.90
16627;DHT22;8427;52.204;7.202;2023-05-07T00:05:57;14.30;90.00
16627;DHT22;8427;52.204;7.202;2023-05-07T00:08:25;14.20;90.10
16627;DHT22;8427;52.204;7.202;2023-05-07T00:10:53;14.30;90.00
16627;DHT22;8427;52.204;7.202;2023-05-07T00:13:21;14.30;90.20
16627;DHT22;8427;52.204;7.202;2023-05-07T00:15:49;14.20;90.20
16627;DHT22;8427;52.204;7.202;2023-05-07T00:18:18;14.30;90.00
16627;DHT22;8427;52.204;7.202;2023-05-07T00:20:49;14.30;89.80
16627;DHT22;8427;52.204;7.202;2023-05-07T00:23:17;14.30;89.80
16627;DHT22;8427;52.204;7.202;2023-05-07T00:25:45;14.40;89.70
16627;DHT22;8427;52.204;7.202;2023-05-07T00:28:12;14.30;89.80
16627;DHT22;8427;52.204;7.202;2023-05-07T00:30:40;14.30;89.80
16627;DHT22;8427;52.204;7.202;2023-05-07T00:33:08;14.20;89.30
16627;DHT22;8427;52.204;7.202;2023-05-07T00:35:38;14.20;89.20
16627;DHT22;8427;52.204;7.202;2023-05-07T00:38:05;14.20;89.30
16627;DHT22;8427;52.204;7.202;2023-05-07T00:40:33;14.10;88.90
16627;DHT22;8427;52.204;7.202;2023-05-07T00:43:01;14.00;89.20
16627;DHT22;8427;52.204;7.202;2023-05-07T00:45:30;14.00;88.80
16627;DHT22;8427;52.204;7.202;2023-05-07T00:48:00;13.90;88.90
16627;DHT22;8427;52.204;7.202;2023-05-07T00:50:28;14.00;88.90
16627;DHT22;8427;52.204;7.202;2023-05-07T00:52:58;13.90;88.90
16627;DHT22;8427;52.204;7.202;2023-05-07T00:55:27;13.80;88.50
16627;DHT22;8427;52.204;7.202;2023-05-07T00:57:55;13.80;88.80
16627;DHT22;8427;52.204;7.202;2023-05-07T01:00:23;13.80;88.40
16627;DHT22;8427;52.204;7.202;2023-05-07T01:02:51;13.70;88.70
16627;DHT22;8427;52.204;7.202;2023-05-07T01:05:23;13.70;88.50
16627;DHT22;8427;52.204;7.202;2023-05-07T01:07:53;13.70;88.60
16627;DHT22;8427;52.204;7.202;2023-05-07T01:10:24;13.70;88.60
16627;DHT22;8427;52.204;7.202;2023-05-07T01:12:53;13.60;88.60
16627;DHT22;8427;52.204;7.202;2023-05-07T01:15:22;13.70;88.50
16627;DHT22;8427;52.204;7.202;2023-05-07T01:17:49;13.70;88.70
16627;DHT22;8427;52.204;7.202;2023-05-07T01:20:18;13.60;88.50
16627;DHT22;8427;52.204;7.202;2023-05-07T01:22:48;13.60;88.60
16627;DHT22;8427;52.204;7.202;2023-05-07T01:25:17;13.50;88.80
16627;DHT22;8427;52.204;7.202;2023-05-07T01:27:46;13.60;88.60
16627;DHT22;8427;52.204;7.202;2023-05-07T01:30:14;13.50;88.80
16627;DHT22;8427;52.204;7.202;2023-05-07T01:32:46;13.50;88.70
16627;DHT22;8427;52.204;7.202;2023-05-07T01:35:19;13.60;88.40
16627;DHT22;8427;52.204;7.202;2023-05-07T01:37:49;13.60;88.30
16627;DHT22;8427;52.204;7.202;2023-05-07T01:40:18;13.50;88.40
16627;DHT22;8427;52.204;7.202;2023-05-07T01:42:46;13.60;88.50
16627;DHT22;8427;52.204;7.202;2023-05-07T01:45:15;13.50;88.60
16627;DHT22;8427;52.204;7.202;2023-05-07T01:47:44;13.50;88.40
16627;DHT22;8427;52.204;7.202;2023-05-07T01:50:12;13.40;88.40
16627;DHT22;8427;52.204;7.202;2023-05-07T01:52:40;13.50;88.40
16627;DHT22;8427;52.204;7.202;2023-05-07T01:55:10;13.50;88.30
16627;DHT22;8427;52.204;7.202;2023-05-07T01:57:38;13.50;88.30
16627;DHT22;8427;52.204;7.202;2023-05-07T02:00:07;13.30;88.40
16627;DHT22;8427;52.204;7.202;2023-05-07T02:02:36;13.40;88.40
16627;DHT22;8427;52.204;7.202;2023-05-07T02:05:05;13.30;88.30
16627;DHT22;8427;52.204;7.202;2023-05-07T02:07:33;13.30;88.40
16627;DHT22;8427;52.204;7.202;2023-05-07T02:10:01;13.30;88.30
16627;DHT22;8427;52.204;7.202;2023-05-07T02:12:31;13.30;88.60
16627;DHT22;8427;52.204;7.202;2023-05-07T02:15:00;13.30;88.60
16627;DHT22;8427;52.204;7.202;2023-05-07T02:17:28;13.30;88.30
16627;DHT22;8427;52.204;7.202;2023-05-07T02:19:58;13.20;88.30
16627;DHT22;8427;52.204;7.202;2023-05-07T02:22:26;13.20;88.30
16627;DHT22;8427;52.204;7.202;2023-05-07T02:24:54;13.20;87.90
16627;DHT22;8427;52.204;7.202;2023-05-07T02:27:22;13.10;88.20
16627;DHT22;8427;52.204;7.202;2023-05-07T02:29:51;13.10;88.30
16627;DHT22;8427;52.204;7.202;2023-05-07T02:32:19;13.10;88.20
16627;DHT22;8427;52.204;7.202;2023-05-07T02:34:50;13.10;88.40
16627;DHT22;8427;52.204;7.202;2023-05-07T02:37:18;13.10;88.30
16627;DHT22;8427;52.204;7.202;2023-05-07T02:39:46;13.10;88.10
16627;DHT22;8427;52.204;7.202;2023-05-07T02:42:13;12.90;87.80
16627;DHT22;8427;52.204;7.202;2023-05-07T02:44:41;13.00;88.20
16627;DHT22;8427;52.204;7.202;2023-05-07T02:47:11;13.00;87.70
16627;DHT22;8427;52.204;7.202;2023-05-07T02:49:39;12.90;87.80
16627;DHT22;8427;52.204;7.202;2023-05-07T02:52:07;12.90;88.10
16627;DHT22;8427;52.204;7.202;2023-05-07T02:54:35;12.90;88.00
16627;DHT22;8427;52.204;7.202;2023-05-07T02:57:03;13.00;88.30
16627;DHT22;8427;52.204;7.202;2023-05-07T02:59:31;12.90;88.30
16627;DHT22;8427;52.204;7.202;2023-05-07T03:01:59;12.80;88.30
16627;DHT22;8427;52.204;7.202;2023-05-07T03:04:28;12.90;88.00
16627;DHT22;8427;52.204;7.202;2023-05-07T03:06:57;12.80;88.20
16627;DHT22;8427;52.204;7.202;2023-05-07T03:09:24;12.80;88.20
16627;DHT22;8427;52.204;7.202;2023-05-07T03:11:52;12.70;87.90
16627;DHT22;8427;52.204;7.202;2023-05-07T03:14:20;12.60;87.90
16627;DHT22;8427;52.204;7.202;2023-05-07T03:16:49;12.70;88.30
16627;DHT22;8427;52.204;7.202;2023-05-07T03:19:17;12.70;88.20
16627;DHT22;8427;52.204;7.202;2023-05-07T03:21:46;12.80;88.30
16627;DHT22;8427;52.204;7.202;2023-05-07T03:24:14;12.60;88.40
16627;DHT22;8427;52.204;7.202;2023-05-07T03:26:42;12.60;88.40
16627;DHT22;8427;52.204;7.202;2023-05-07T03:29:10;12.60;88.50
16627;DHT22;8427;52.204;7.202;2023-05-07T03:31:38;12.50;88.70
16627;DHT22;8427;52.204;7.202;2023-05-07T03:34:06;12.60;88.40
16627;DHT22;8427;52.204;7.202;2023-05-07T03:36:34;12.60;88.20
16627;DHT22;8427;52.204;7.202;2023-05-07T03:39:03;12.40;88.20
16627;DHT22;8427;52.204;7.202;2023-05-07T03:41:32;12.40;88.10
16627;DHT22;8427;52.204;7.202;2023-05-07T03:44:00;12.30;88.20
16627;DHT22;8427;52.204;7.202;2023-05-07T03:46:28;12.40;88.20
16627;DHT22;8427;52.204;7.202;2023-05-07T03:48:56;12.50;88.30
16627;DHT22;8427;52.204;7.202;2023-05-07T03:51:24;12.40;87.90
16627;DHT22;8427;52.204;7.202;2023-05-07T03:53:52;12.40;87.90
16627;DHT22;8427;52.204;7.202;2023-05-07T03:56:21;12.40;87.90
16627;DHT22;8427;52.204;7.202;2023-05-07T03:58:49;12.40;87.90
16627;DHT22;8427;52.204;7.202;2023-05-07T04:01:17;12.40;88.10
16627;DHT22;8427;52.204;7.202;2023-05-07T04:03:46;12.30;87.80
16627;DHT22;8427;52.204;7.202;2023-05-07T04:06:15;12.50;88.20
16627;DHT22;8427;52.204;7.202;2023-05-07T04:08:44;12.20;87.80
16627;DHT22;8427;52.204;7.202;2023-05-07T04:11:12;12.30;88.10
16627;DHT22;8427;52.204;7.202;2023-05-07T04:13:41;12.30;88.00
16627;DHT22;8427;52.204;7.202;2023-05-07T04:16:09;12.10;87.60
16627;DHT22;8427;52.204;7.202;2023-05-07T04:18:37;12.10;87.80
16627;DHT22;8427;52.204;7.202;2023-05-07T04:21:05;12.10;87.80
16627;DHT22;8427;52.204;7.202;2023-05-07T04:23:33;12.00;87.80
16627;DHT22;8427;52.204;7.202;2023-05-07T04:26:01;11.90;87.80
16627;DHT22;8427;52.204;7.202;2023-05-07T04:28:29;12.30;87.80
16627;DHT22;8427;52.204;7.202;2023-05-07T04:30:59;12.10;87.50
16627;DHT22;8427;52.204;7.202;2023-05-07T04:33:27;12.00;87.60
16627;DHT22;8427;52.204;7.202;2023-05-07T04:35:55;12.10;87.50
16627;DHT22;8427;52.204;7.202;2023-05-07T04:38:23;12.00;87.50
16627;DHT22;8427;52.204;7.202;2023-05-07T04:40:52;12.00;87.60
16627;DHT22;8427;52.204;7.202;2023-05-07T04:43:20;12.10;87.50
16627;DHT22;8427;52.204;7.202;2023-05-07T04:45:49;12.10;87.70
16627;DHT22;8427;52.204;7.202;2023-05-07T04:48:19;12.10;87.40
16627;DHT22;8427;52.204;7.202;2023-05-07T04:50:48;12.30;87.40
16627;DHT22;8427;52.204;7.202;2023-05-07T04:53:16;12.20;87.20
16627;DHT22;8427;52.204;7.202;2023-05-07T04:55:44;12.20;87.10
16627;DHT22;8427;52.204;7.202;2023-05-07T04:58:13;12.30;86.90
16627;DHT22;8427;52.204;7.202;2023-05-07T05:00:41;12.20;86.70
16627;DHT22;8427;52.204;7.202;2023-05-07T05:03:10;12.40;86.50
16627;DHT22;8427;52.204;7.202;2023-05-07T05:05:39;12.40;86.80
16627;DHT22;8427;52.204;7.202;2023-05-07T05:08:07;12.40;86.30
16627;DHT22;8427;52.204;7.202;2023-05-07T05:10:35;12.60;86.50
16627;DHT22;8427;52.204;7.202;2023-05-07T05:13:03;12.60;86.10
16627;DHT22;8427;52.204;7.202;2023-05-07T05:15:31;12.60;85.80
16627;DHT22;8427;52.204;7.202;2023-05-07T05:17:59;12.60;85.90
16627;DHT22;8427;52.204;7.202;2023-05-07T05:20:27;12.60;86.10
16627;DHT22;8427;52.204;7.202;2023-05-07T05:22:57;12.60;85.40
16627;DHT22;8427;52.204;7.202;2023-05-07T05:25:25;12.60;85.40
16627;DHT22;8427;52.204;7.202;2023-05-07T05:27:54;12.60;85.70
16627;DHT22;8427;52.204;7.202;2023-05-07T05:30:22;12.70;85.70
16627;DHT22;8427;52.204;7.202;2023-05-07T05:32:50;12.80;85.40
16627;DHT22;8427;52.204;7.202;2023-05-07T05:35:18;12.70;85.10
16627;DHT22;8427;52.204;7.202;2023-05-07T05:37:47;12.80;85.10
16627;DHT22;8427;52.204;7.202;2023-05-07T05:40:16;12.80;85.30
16627;DHT22;8427;52.204;7.202;2023-05-07T05:42:44;12.90;85.30
16627;DHT22;8427;52.204;7.202;2023-05-07T05:45:13;13.00;85.20
16627;DHT22;8427;52.204;7.202;2023-05-07T05:47:41;13.00;84.40
16627;DHT22;8427;52.204;7.202;2023-05-07T05:50:09;12.90;84.70
16627;DHT22;8427;52.204;7.202;2023-05-07T05:52:38;13.00;84.40
16627;DHT22;8427;52.204;7.202;2023-05-07T05:55:08;13.00;85.00
16627;DHT22;8427;52.204;7.202;2023-05-07T05:57:38;13.20;85.00
16627;DHT22;8427;52.204;7.202;2023-05-07T06:00:07;13.20;84.20
16627;DHT22;8427;52.204;7.202;2023-05-07T06:02:36;13.30;84.60
16627;DHT22;8427;52.204;7.202;2023-05-07T06:05:05;13.30;84.00
16627;DHT22;8427;52.204;7.202;2023-05-07T06:07:33;13.40;84.30
16627;DHT22;8427;52.204;7.202;2023-05-07T06:10:01;13.40;84.30
16627;DHT22;8427;52.204;7.202;2023-05-07T06:12:29;13.50;84.00
16627;DHT22;8427;52.204;7.202;2023-05-07T06:14:59;13.60;84.00
16627;DHT22;8427;52.204;7.202;2023-05-07T06:17:28;13.70;83.10
16627;DHT22;8427;52.204;7.202;2023-05-07T06:19:55;13.70;83.30
16627;DHT22;8427;52.204;7.202;2023-05-07T06:22:23;13.70;82.80
16627;DHT22;8427;52.204;7.202;2023-05-07T06:24:51;13.70;82.70
16627;DHT22;8427;52.204;7.202;2023-05-07T06:27:19;13.80;82.60
16627;DHT22;8427;52.204;7.202;2023-05-07T06:29:48;14.00;82.10
16627;DHT22;8427;52.204;7.202;2023-05-07T06:32:18;14.00;82.10
16627;DHT22;8427;52.204;7.202;2023-05-07T06:34:46;14.00;81.90
16627;DHT22;8427;52.204;7.202;2023-05-07T06:37:14;14.20;81.20
16627;DHT22;8427;52.204;7.202;2023-05-07T06:39:42;14.30;80.50
16627;DHT22;8427;52.204;7.202;2023-05-07T06:42:10;14.30;80.60
16627;DHT22;8427;52.204;7.202;2023-05-07T06:44:38;14.40;80.60
16627;DHT22;8427;52.204;7.202;2023-05-07T06:47:06;14.40;80.10
16627;DHT22;8427;52.204;7.202;2023-05-07T06:49:35;14.40;80.10
16627;DHT22;8427;52.204;7.202;2023-05-07T06:52:04;14.40;80.30
16627;DHT22;8427;52.204;7.202;2023-05-07T06:54:32;14.50;80.00
16627;DHT22;8427;52.204;7.202;2023-05-07T06:57:00;14.70;79.70
16627;DHT22;8427;52.204;7.202;2023-05-07T06:59:28;14.70;79.30
16627;DHT22;8427;52.204;7.202;2023-05-07T07:01:56;14.60;79.50
16627;DHT22;8427;52.204;7.202;2023-05-07T07:04:24;14.60;79.60
16627;DHT22;8427;52.204;7.202;2023-05-07T07:06:54;14.70;79.90
16627;DHT22;8427;52.204;7.202;2023-05-07T07:09:23;14.60;80.00
16627;DHT22;8427;52.204;7.202;2023-05-07T07:11:51;14.70;79.70
16627;DHT22;8427;52.204;7.202;2023-05-07T07:14:19;14.80;79.00
16627;DHT22;8427;52.204;7.202;2023-05-07T07:16:47;14.80;79.20
16627;DHT22;8427;52.204;7.202;2023-05-07T07:19:15;14.90;78.80
16627;DHT22;8427;52.204;7.202;2023-05-07T07:21:43;14.90;78.50
16627;DHT22;8427;52.204;7.202;2023-05-07T07:24:13;15.00;78.40
16627;DHT22;8427;52.204;7.202;2023-05-07T07:26:45;15.10;78.20
16627;DHT22;8427;52.204;7.202;2023-05-07T07:29:14;15.30;78.60
16627;DHT22;8427;52.204;7.202;2023-05-07T07:31:42;15.50;77.60
16627;DHT22;8427;52.204;7.202;2023-05-07T07:37:07;15.70;76.00
16627;DHT22;8427;52.204;7.202;2023-05-07T07:39:37;15.80;76.70
16627;DHT22;8427;52.204;7.202;2023-05-07T07:42:05;15.80;76.10
16627;DHT22;8427;52.204;7.202;2023-05-07T07:44:33;15.80;75.80
16627;DHT22;8427;52.204;7.202;2023-05-07T07:47:01;15.90;76.00
16627;DHT22;8427;52.204;7.202;2023-05-07T07:49:30;15.80;75.20
16627;DHT22;8427;52.204;7.202;2023-05-07T07:51:58;15.80;75.30
16627;DHT22;8427;52.204;7.202;2023-05-07T07:54:26;15.90;75.10
16627;DHT22;8427;52.204;7.202;2023-05-07T07:56:58;16.00;74.60
16627;DHT22;8427;52.204;7.202;2023-05-07T07:59:26;16.10;74.40
16627;DHT22;8427;52.204;7.202;2023-05-07T08:01:54;16.10;73.60
16627;DHT22;8427;52.204;7.202;2023-05-07T08:04:23;16.30;75.50
16627;DHT22;8427;52.204;7.202;2023-05-07T08:06:51;16.30;74.30
16627;DHT22;8427;52.204;7.202;2023-05-07T08:09:20;16.30;73.40
16627;DHT22;8427;52.204;7.202;2023-05-07T08:11:48;16.40;72.90
16627;DHT22;8427;52.204;7.202;2023-05-07T08:14:18;16.60;73.90
16627;DHT22;8427;52.204;7.202;2023-05-07T08:16:46;16.60;72.20
16627;DHT22;8427;52.204;7.202;2023-05-07T08:19:14;16.70;72.80
16627;DHT22;8427;52.204;7.202;2023-05-07T08:21:42;16.70;71.70
16627;DHT22;8427;52.204;7.202;2023-05-07T08:24:10;16.80;72.60
16627;DHT22;8427;52.204;7.202;2023-05-07T08:26:38;16.90;72.80
16627;DHT22;8427;52.204;7.202;2023-05-07T08:29:06;16.90;71.50
16627;DHT22;8427;52.204;7.202;2023-05-07T08:31:36;17.20;71.40
16627;DHT22;8427;52.204;7.202;2023-05-07T08:34:05;17.20;70.40
16627;DHT22;8427;52.204;7.202;2023-05-07T08:36:35;17.40;70.70
16627;DHT22;8427;52.204;7.202;2023-05-07T08:39:04;17.40;69.30
16627;DHT22;8427;52.204;7.202;2023-05-07T08:41:32;17.80;69.20
16627;DHT22;8427;52.204;7.202;2023-05-07T08:44:03;17.60;69.50
16627;DHT22;8427;52.204;7.202;2023-05-07T08:46:35;17.60;68.90
16627;DHT22;8427;52.204;7.202;2023-05-07T08:49:04;17.90;69.80
16627;DHT22;8427;52.204;7.202;2023-05-07T08:51:32;17.90;69.10
16627;DHT22;8427;52.204;7.202;2023-05-07T08:54:01;17.80;69.20
16627;DHT22;8427;52.204;7.202;2023-05-07T08:56:29;17.90;68.00
16627;DHT22;8427;52.204;7.202;2023-05-07T08:58:59;18.00;67.30
16627;DHT22;8427;52.204;7.202;2023-05-07T09:01:27;18.10;68.30
16627;DHT22;8427;52.204;7.202;2023-05-07T09:03:57;18.30;67.60
16627;DHT22;8427;52.204;7.202;2023-05-07T09:06:25;18.40;66.50
16627;DHT22;8427;52.204;7.202;2023-05-07T09:08:54;18.50;66.90
16627;DHT22;8427;52.204;7.202;2023-05-07T09:11:23;18.20;66.10
16627;DHT22;8427;52.204;7.202;2023-05-07T09:13:54;18.20;65.60
16627;DHT22;8427;52.204;7.202;2023-05-07T09:16:23;18.40;66.50
16627;DHT22;8427;52.204;7.202;2023-05-07T09:18:52;18.60;65.80
16627;DHT22;8427;52.204;7.202;2023-05-07T09:21:23;18.60;64.80
16627;DHT22;8427;52.204;7.202;2023-05-07T09:23:51;18.80;66.00
16627;DHT22;8427;52.204;7.202;2023-05-07T09:26:21;18.70;65.40
16627;DHT22;8427;52.204;7.202;2023-05-07T09:28:49;18.60;64.20
16627;DHT22;8427;52.204;7.202;2023-05-07T09:31:18;18.70;65.60
16627;DHT22;8427;52.204;7.202;2023-05-07T09:33:47;18.90;65.10
16627;DHT22;8427;52.204;7.202;2023-05-07T09:36:16;19.00;64.90
16627;DHT22;8427;52.204;7.202;2023-05-07T09:38:45;19.10;64.40
16627;DHT22;8427;52.204;7.202;2023-05-07T09:41:14;19.20;63.70
16627;DHT22;8427;52.204;7.202;2023-05-07T09:43:41;19.40;64.10
16627;DHT22;8427;52.204;7.202;2023-05-07T09:46:12;19.30;63.80
16627;DHT22;8427;52.204;7.202;2023-05-07T09:48:42;19.40;64.70
16627;DHT22;8427;52.204;7.202;2023-05-07T09:51:18;19.40;65.60
16627;DHT22;8427;52.204;7.202;2023-05-07T09:53:47;19.40;62.80
16627;DHT22;8427;52.204;7.202;2023-05-07T09:56:16;19.30;62.90
16627;DHT22;8427;52.204;7.202;2023-05-07T09:58:46;19.10;64.10
16627;DHT22;8427;52.204;7.202;2023-05-07T10:01:17;19.10;64.10
16627;DHT22;8427;52.204;7.202;2023-05-07T10:03:46;19.00;63.70
16627;DHT22;8427;52.204;7.202;2023-05-07T10:06:14;19.10;64.50
16627;DHT22;8427;52.204;7.202;2023-05-07T10:08:43;19.10;63.90
16627;DHT22;8427;52.204;7.202;2023-05-07T10:11:13;19.10;63.60
16627;DHT22;8427;52.204;7.202;2023-05-07T10:13:42;19.10;64.40
16627;DHT22;8427;52.204;7.202;2023-05-07T10:16:10;19.20;64.20
16627;DHT22;8427;52.204;7.202;2023-05-07T10:18:38;19.40;64.10
16627;DHT22;8427;52.204;7.202;2023-05-07T10:21:11;19.60;65.20
16627;DHT22;8427;52.204;7.202;2023-05-07T10:23:40;19.70;62.00
16627;DHT22;8427;52.204;7.202;2023-05-07T10:26:09;19.60;64.30
16627;DHT22;8427;52.204;7.202;2023-05-07T10:28:41;19.70;61.90
16627;DHT22;8427;52.204;7.202;2023-05-07T10:31:23;19.80;63.40
16627;DHT22;8427;52.204;7.202;2023-05-07T10:36:27;20.10;61.20
16627;DHT22;8427;52.204;7.202;2023-05-07T10:38:55;20.20;61.30
16627;DHT22;8427;52.204;7.202;2023-05-07T10:41:23;20.10;61.00
16627;DHT22;8427;52.204;7.202;2023-05-07T10:43:52;20.20;61.10
16627;DHT22;8427;52.204;7.202;2023-05-07T10:46:21;20.10;60.50
16627;DHT22;8427;52.204;7.202;2023-05-07T10:49:11;20.00;61.10
16627;DHT22;8427;52.204;7.202;2023-05-07T10:51:39;20.00;60.70
16627;DHT22;8427;52.204;7.202;2023-05-07T10:54:23;20.10;61.90
16627;DHT22;8427;52.204;7.202;2023-05-07T10:56:53;20.10;61.40
16627;DHT22;8427;52.204;7.202;2023-05-07T10:59:33;20.20;59.30
16627;DHT22;8427;52.204;7.202;2023-05-07T11:02:07;20.20;60.80
16627;DHT22;8427;52.204;7.202;2023-05-07T11:04:37;20.30;60.90
16627;DHT22;8427;52.204;7.202;2023-05-07T11:07:33;20.60;60.90
16627;DHT22;8427;52.204;7.202;2023-05-07T11:10:05;20.70;59.30
16627;DHT22;8427;52.204;7.202;2023-05-07T11:12:53;20.90;60.30
16627;DHT22;8427;52.204;7.202;2023-05-07T11:15:36;20.90;58.50
16627;DHT22;8427;52.204;7.202;2023-05-07T11:18:05;20.80;58.50
16627;DHT22;8427;52.204;7.202;2023-05-07T11:20:54;20.80;59.20
16627;DHT22;8427;52.204;7.202;2023-05-07T11:23:56;20.90;58.80
16627;DHT22;8427;52.204;7.202;2023-05-07T11:26:29;21.00;58.60
16627;DHT22;8427;52.204;7.202;2023-05-07T11:28:57;20.90;58.20
16627;DHT22;8427;52.204;7.202;2023-05-07T11:31:28;21.00;58.70
16627;DHT22;8427;52.204;7.202;2023-05-07T11:33:57;20.90;59.20
16627;DHT22;8427;52.204;7.202;2023-05-07T11:36:30;21.00;58.80
16627;DHT22;8427;52.204;7.202;2023-05-07T11:38:58;21.20;58.50
16627;DHT22;8427;52.204;7.202;2023-05-07T11:41:34;21.10;56.20
16627;DHT22;8427;52.204;7.202;2023-05-07T11:44:02;21.30;57.80
16627;DHT22;8427;52.204;7.202;2023-05-07T11:46:32;21.30;57.30
16627;DHT22;8427;52.204;7.202;2023-05-07T11:49:01;21.20;57.10
16627;DHT22;8427;52.204;7.202;2023-05-07T11:51:30;21.40;60.80
16627;DHT22;8427;52.204;7.202;2023-05-07T11:53:58;21.40;57.00
16627;DHT22;8427;52.204;7.202;2023-05-07T11:56:29;21.40;58.10
16627;DHT22;8427;52.204;7.202;2023-05-07T11:58:57;21.50;56.70
16627;DHT22;8427;52.204;7.202;2023-05-07T12:01:25;21.50;56.60
16627;DHT22;8427;52.204;7.202;2023-05-07T12:03:54;21.50;59.70
16627;DHT22;8427;52.204;7.202;2023-05-07T12:06:22;21.50;59.70
16627;DHT22;8427;52.204;7.202;2023-05-07T12:08:50;21.80;56.70
16627;DHT22;8427;52.204;7.202;2023-05-07T12:11:22;21.90;55.80
16627;DHT22;8427;52.204;7.202;2023-05-07T12:13:51;22.00;55.20
16627;DHT22;8427;52.204;7.202;2023-05-07T12:16:25;22.00;54.30
16627;DHT22;8427;52.204;7.202;2023-05-07T12:18:55;21.80;54.40
16627;DHT22;8427;52.204;7.202;2023-05-07T12:21:25;21.80;53.60
16627;DHT22;8427;52.204;7.202;2023-05-07T12:23:53;21.90;53.90
16627;DHT22;8427;52.204;7.202;2023-05-07T12:26:21;22.00;55.80
16627;DHT22;8427;52.204;7.202;2023-05-07T12:28:49;22.20;57.20
16627;DHT22;8427;52.204;7.202;2023-05-07T12:31:17;22.10;53.00
16627;DHT22;8427;52.204;7.202;2023-05-07T12:33:45;22.00;55.90
16627;DHT22;8427;52.204;7.202;2023-05-07T12:36:15;21.90;52.90
16627;DHT22;8427;52.204;7.202;2023-05-07T12:38:43;21.90;55.50
16627;DHT22;8427;52.204;7.202;2023-05-07T12:41:11;22.00;56.50
16627;DHT22;8427;52.204;7.202;2023-05-07T12:43:40;22.00;53.80
16627;DHT22;8427;52.204;7.202;2023-05-07T12:46:12;22.00;53.90
16627;DHT22;8427;52.204;7.202;2023-05-07T12:48:44;21.90;54.50
16627;DHT22;8427;52.204;7.202;2023-05-07T12:51:14;22.00;55.80
16627;DHT22;8427;52.204;7.202;2023-05-07T12:53:43;22.30;54.40
16627;DHT22;8427;52.204;7.202;2023-05-07T12:56:11;22.30;52.30
16627;DHT22;8427;52.204;7.202;2023-05-07T12:58:39;22.50;52.60
16627;DHT22;8427;52.204;7.202;2023-05-07T13:01:08;22.40;53.10
16627;DHT22;8427;52.204;7.202;2023-05-07T13:03:38;22.40;54.10
16627;DHT22;8427;52.204;7.202;2023-05-07T13:06:07;22.50;51.90
16627;DHT22;8427;52.204;7.202;2023-05-07T13:08:40;22.40;51.90
16627;DHT22;8427;52.204;7.202;2023-05-07T13:11:10;22.60;52.30
16627;DHT22;8427;52.204;7.202;2023-05-07T13:13:39;22.70;52.60
16627;DHT22;8427;52.204;7.202;2023-05-07T13:16:09;22.80;52.90
16627;DHT22;8427;52.204;7.202;2023-05-07T13:18:38;22.80;51.90
16627;DHT22;8427;52.204;7.202;2023-05-07T13:21:07;23.10;50.70
16627;DHT22;8427;52.204;7.202;2023-05-07T13:23:38;23.30;50.20
16627;DHT22;8427;52.204;7.202;2023-05-07T13:26:07;23.40;49.30
16627;DHT22;8427;52.204;7.202;2023-05-07T13:28:52;23.60;49.20
16627;DHT22;8427;52.204;7.202;2023-05-07T13:31:20;23.40;49.20
16627;DHT22;8427;52.204;7.202;2023-05-07T13:33:49;23.30;50.70
16627;DHT22;8427;52.204;7.202;2023-05-07T13:36:17;23.20;50.60
16627;DHT22;8427;52.204;7.202;2023-05-07T13:38:46;23.30;50.70
16627;DHT22;8427;52.204;7.202;2023-05-07T13:41:15;23.40;52.20
16627;DHT22;8427;52.204;7.202;2023-05-07T13:43:43;23.50;51.90
16627;DHT22;8427;52.204;7.202;2023-05-07T13:46:11;23.30;51.40
16627;DHT22;8427;52.204;7.202;2023-05-07T13:48:39;23.50;52.70
16627;DHT22;8427;52.204;7.202;2023-05-07T13:51:07;23.70;52.90
16627;DHT22;8427;52.204;7.202;2023-05-07T13:53:35;23.90;51.30
16627;DHT22;8427;52.204;7.202;2023-05-07T13:56:05;23.80;50.40
16627;DHT22;8427;52.204;7.202;2023-05-07T13:58:33;23.70;49.80
16627;DHT22;8427;52.204;7.202;2023-05-07T14:01:14;23.80;50.30
16627;DHT22;8427;52.204;7.202;2023-05-07T14:03:42;24.00;50.40
16627;DHT22;8427;52.204;7.202;2023-05-07T14:06:10;24.00;50.80
16627;DHT22;8427;52.204;7.202;2023-05-07T14:08:38;24.00;49.40
16627;DHT22;8427;52.204;7.202;2023-05-07T14:11:08;24.20;47.40
16627;DHT22;8427;52.204;7.202;2023-05-07T14:13:36;23.80;49.90
16627;DHT22;8427;52.204;7.202;2023-05-07T14:16:04;23.70;49.10
16627;DHT22;8427;52.204;7.202;2023-05-07T14:18:32;23.70;50.80
16627;DHT22;8427;52.204;7.202;2023-05-07T14:21:04;23.70;49.50
16627;DHT22;8427;52.204;7.202;2023-05-07T14:23:34;23.80;51.20
16627;DHT22;8427;52.204;7.202;2023-05-07T14:26:02;23.60;50.00
16627;DHT22;8427;52.204;7.202;2023-05-07T14:28:31;23.40;50.30
16627;DHT22;8427;52.204;7.202;2023-05-07T14:30:59;23.10;51.10
16627;DHT22;8427;52.204;7.202;2023-05-07T14:33:27;22.90;51.80
16627;DHT22;8427;52.204;7.202;2023-05-07T14:35:55;23.00;53.20
16627;DHT22;8427;52.204;7.202;2023-05-07T14:38:23;23.00;50.80
16627;DHT22;8427;52.204;7.202;2023-05-07T14:40:51;23.10;50.70
16627;DHT22;8427;52.204;7.202;2023-05-07T14:43:22;22.90;51.90
16627;DHT22;8427;52.204;7.202;2023-05-07T14:45:52;23.00;51.90
16627;DHT22;8427;52.204;7.202;2023-05-07T14:48:20;22.90;52.90
16627;DHT22;8427;52.204;7.202;2023-05-07T14:50:48;22.60;53.10
16627;DHT22;8427;52.204;7.202;2023-05-07T14:53:16;22.50;54.30
16627;DHT22;8427;52.204;7.202;2023-05-07T14:55:44;22.30;53.30
16627;DHT22;8427;52.204;7.202;2023-05-07T14:58:12;22.10;54.40
16627;DHT22;8427;52.204;7.202;2023-05-07T15:00:40;22.00;55.10
16627;DHT22;8427;52.204;7.202;2023-05-07T15:03:10;21.70;54.60
16627;DHT22;8427;52.204;7.202;2023-05-07T15:05:40;21.70;55.90
16627;DHT22;8427;52.204;7.202;2023-05-07T15:08:08;21.60;57.30
16627;DHT22;8427;52.204;7.202;2023-05-07T15:10:36;21.70;57.50
16627;DHT22;8427;52.204;7.202;2023-05-07T15:13:08;21.70;56.50
16627;DHT22;8427;52.204;7.202;2023-05-07T15:15:42;21.70;55.90
16627;DHT22;8427;52.204;7.202;2023-05-07T15:18:12;21.90;55.80
16627;DHT22;8427;52.204;7.202;2023-05-07T15:20:41;22.00;56.70
16627;DHT22;8427;52.204;7.202;2023-05-07T15:23:09;22.00;56.50
16627;DHT22;8427;52.204;7.202;2023-05-07T15:25:39;22.10;56.60
16627;DHT22;8427;52.204;7.202;2023-05-07T15:28:07;22.00;55.80
16627;DHT22;8427;52.204;7.202;2023-05-07T15:30:35;22.00;55.70
16627;DHT22;8427;52.204;7.202;2023-05-07T15:33:03;22.00;57.40
16627;DHT22;8427;52.204;7.202;2023-05-07T15:35:33;21.90;55.30
16627;DHT22;8427;52.204;7.202;2023-05-07T15:38:01;21.60;56.30
16627;DHT22;8427;52.204;7.202;2023-05-07T15:40:30;21.50;56.00
16627;DHT22;8427;52.204;7.202;2023-05-07T15:42:59;21.50;57.20
16627;DHT22;8427;52.204;7.202;2023-05-07T15:45:28;21.40;56.40
16627;DHT22;8427;52.204;7.202;2023-05-07T15:47:56;21.40;57.10
16627;DHT22;8427;52.204;7.202;2023-05-07T15:50:24;21.10;57.40
16627;DHT22;8427;52.204;7.202;2023-05-07T15:52:54;21.10;57.60
16627;DHT22;8427;52.204;7.202;2023-05-07T15:55:22;20.90;57.90
16627;DHT22;8427;52.204;7.202;2023-05-07T15:57:50;20.90;59.80
16627;DHT22;8427;52.204;7.202;2023-05-07T16:00:21;20.80;58.70
16627;DHT22;8427;52.204;7.202;2023-05-07T16:02:49;20.80;59.20